KJFK

New York/John F Kennedy International Airport

Airport
ICAO code
KJFK
IATA Code
JFK
Summary
ICAO Region
NAM
ICAO Territory
Location

Jamaica, Queens, New York, New York

Serving
New York
Elevation
13 ft
Coordinates
40° 38' 40" N , 73° 46' 58" W
KCC
Airport BS
Bird Strike
Airport LOS
Parallel Runway Operation
Airport RE
Engineered Materials Arresting System
Metar
Observation
KJFK 260751Z 26011KT 10SM FEW012 FEW110 16/14 A2965 RMK AO2 SLP039 T01560139 $
Station
New York, Kennedy International Airport
Date/Time
2022-09-26 07:51:00
Wind direction
260°
Wind speed
11 kts
Lowest cloud amount
few clouds
Temperature
15.6°C
Dew point
13.9°C
Humidity
89%
Weather condition
n/a

International airport serving the city of New York, NY, USA.

Climatology

Humid “subtropical” climate (Köppen climate classification Cfa) - characterized by hot, humid summers and cool winters. Significant amounts of precipitation occur in all seasons in most areas. Winter rainfall (and sometimes snowfall) is associated with large storms that the westerlies steer from west to east. Most summer rainfall occurs during thunderstorms.

SKYbrary Partners:

Safety knowledge contributed by: